Andersonville, Tennessee
Current Conditions -  °F | °C
As of 10:53 AM on Monday 26 Jan 2015 (Local Time) from KOQT Reporting Station
Overcast Overcast  
Wind Chill: 34°   Ceiling: 2400
Heat Index: 38°   Visibility: 10mi
Dew Point: 30°   Wind: 5mph
Humidity: 73%   Direction: 280°W
Pressure: 29.86"   Gusts: NA
Location:  36.2°N, 84.04°W
Report Text: KOQT 261553Z AUTO 28004KT 10SM OVC024 03/M01 A2986 RMK AO2 SLP120 T00331011
Loading
Personal Weather Stations






























Interactive Weather Map New forecast layout! Learn more

10-Day Weather Forecast

Advertisements
Track Severe Weather on mobile